createdAt,value
2019-05-09T00:00:04.001Z,94508.97
2019-05-09T00:02:39.239Z,94510.78
2019-05-09T00:05:13.817Z,94507.46
2019-05-09T00:07:47.048Z,94509.41
2019-05-09T00:10:19.939Z,94507.69
2019-05-09T00:12:54.007Z,94506.52
2019-05-09T00:15:26.926Z,94506.61
2019-05-09T00:17:59.861Z,94508.55
2019-05-09T00:20:53.881Z,94508.23
2019-05-09T00:23:26.610Z,94507.87
2019-05-09T00:25:59.175Z,94511.84
2019-05-09T00:28:35.894Z,94501.65
2019-05-09T00:31:25.942Z,94510.78
2019-05-09T00:34:04.220Z,94507.79
2019-05-09T00:36:36.480Z,94508.67
2019-05-09T00:39:09.633Z,94502.44
2019-05-09T00:41:43.554Z,94491.06
2019-05-09T00:44:23.563Z,94492.66
2019-05-09T00:47:13.493Z,94492.81
2019-05-09T00:49:48.101Z,94493.11
2019-05-09T00:52:20.780Z,94495.91
2019-05-09T00:54:53.639Z,94491.64
2019-05-09T00:57:35.563Z,94490.75
2019-05-09T01:00:14.854Z,94493.00
2019-05-09T01:02:47.856Z,94494.25
2019-05-09T01:05:21.039Z,94487.27
2019-05-09T01:07:53.978Z,94483.83
2019-05-09T01:10:26.784Z,94486.90
2019-05-09T01:12:59.853Z,94481.66
2019-05-09T01:15:33.403Z,94481.58
2019-05-09T01:18:06.531Z,94481.34
2019-05-09T01:20:39.613Z,94479.40
2019-05-09T01:23:14.187Z,94473.11
2019-05-09T01:25:48.044Z,94474.73
2019-05-09T01:28:22.996Z,94481.10
2019-05-09T01:30:55.861Z,94479.97
2019-05-09T01:33:43.959Z,94481.34
2019-05-09T01:36:16.748Z,94480.90
2019-05-09T01:38:49.779Z,94479.48
2019-05-09T01:41:30.503Z,94471.73
2019-05-09T01:43:57.641Z,94475.27
2019-05-09T01:46:30.402Z,94470.03
2019-05-09T01:49:03.325Z,94471.20
2019-05-09T01:51:36.282Z,94469.38
2019-05-09T01:54:09.737Z,94462.68
2019-05-09T01:56:43.173Z,94467.52
2019-05-09T01:59:16.765Z,94464.88
2019-05-09T02:01:49.880Z,94463.28
2019-05-09T02:04:24.291Z,94465.22
2019-05-09T02:06:57.833Z,94463.09
2019-05-09T02:09:31.296Z,94464.14
2019-05-09T02:12:04.495Z,94463.86
2019-05-09T02:14:56.549Z,94461.30
2019-05-09T02:17:58.906Z,94465.55
2019-05-09T02:20:26.248Z,94465.31
2019-05-09T02:22:59.211Z,94465.10
2019-05-09T02:25:33.490Z,94463.51
2019-05-09T02:28:06.684Z,94465.31
2019-05-09T02:30:39.806Z,94468.67
2019-05-09T02:33:14.604Z,94474.53
2019-05-09T02:35:56.547Z,94476.34
2019-05-09T02:38:24.976Z,94469.06
2019-05-09T02:40:59.535Z,94465.53
2019-05-09T02:43:32.891Z,94457.37
2019-05-09T02:46:19.282Z,94460.55
2019-05-09T02:48:52.550Z,94459.02
2019-05-09T02:51:28.994Z,94463.20
2019-05-09T02:54:00.777Z,94458.69
2019-05-09T02:56:38.403Z,94456.05
2019-05-09T02:59:34.882Z,94462.16
2019-05-09T03:02:28.670Z,94456.65
2019-05-09T03:05:00.289Z,94455.08
2019-05-09T03:07:51.527Z,94450.30
2019-05-09T03:10:25.359Z,94450.41
2019-05-09T03:12:59.412Z,94450.72
2019-05-09T03:15:33.133Z,94448.77
2019-05-09T03:18:08.859Z,94450.48
2019-05-09T03:21:02.561Z,94452.04
2019-05-09T03:23:38.578Z,94446.59
2019-05-09T03:26:11.893Z,94447.60
2019-05-09T03:29:03.928Z,94444.31
2019-05-09T03:31:39.429Z,94445.53
2019-05-09T03:34:12.425Z,94450.66
2019-05-09T03:36:47.601Z,94450.90
2019-05-09T03:39:20.310Z,94445.55
2019-05-09T03:41:53.251Z,94444.41
2019-05-09T03:44:28.211Z,94451.72
2019-05-09T03:47:21.002Z,94447.02
2019-05-09T03:50:14.250Z,94450.29
2019-05-09T03:52:47.901Z,94448.98
2019-05-09T03:55:31.285Z,94450.82
2019-05-09T03:58:09.869Z,94455.05
2019-05-09T04:00:42.574Z,94452.86
2019-05-09T04:03:15.707Z,94446.60
2019-05-09T04:05:59.024Z,94453.85
2019-05-09T04:08:23.521Z,94453.87
2019-05-09T04:10:58.719Z,94447.60
2019-05-09T04:13:38.387Z,94447.52
2019-05-09T04:16:10.840Z,94445.66
2019-05-09T04:18:44.872Z,94445.77
2019-05-09T04:21:17.747Z,94438.86
2019-05-09T04:23:51.352Z,94429.39
2019-05-09T04:26:43.360Z,94430.30
2019-05-09T04:29:18.221Z,94429.17
2019-05-09T04:31:50.882Z,94424.86
2019-05-09T04:34:23.846Z,94429.56
2019-05-09T04:36:57.882Z,94418.95
2019-05-09T04:39:30.989Z,94415.13
2019-05-09T04:42:05.684Z,94413.59
2019-05-09T04:45:04.134Z,94410.53
2019-05-09T04:47:41.651Z,94404.99
2019-05-09T04:50:15.426Z,94410.98
2019-05-09T04:52:49.560Z,94405.59
2019-05-09T04:55:24.539Z,94409.50
2019-05-09T04:58:00.094Z,94402.67
2019-05-09T05:00:54.146Z,94400.77
2019-05-09T05:03:28.417Z,94395.33
2019-05-09T05:06:01.750Z,94386.95
2019-05-09T05:08:37.414Z,94385.34
2019-05-09T05:11:09.908Z,94391.55
2019-05-09T05:13:43.077Z,94393.27
2019-05-09T05:16:18.277Z,94395.86
2019-05-09T05:18:51.330Z,94401.58
2019-05-09T05:21:48.083Z,94404.25
2019-05-09T05:24:48.541Z,94400.02
2019-05-09T05:27:32.142Z,94387.98
2019-05-09T05:30:47.586Z,94386.20
2019-05-09T05:33:53.726Z,94389.98
2019-05-09T05:36:38.241Z,94389.73
2019-05-09T05:39:33.038Z,94393.50
2019-05-09T05:42:22.201Z,94375.28
2019-05-09T05:45:07.407Z,94373.93
2019-05-09T05:48:02.878Z,94381.69
2019-05-09T05:50:38.485Z,94386.00
2019-05-09T05:53:11.604Z,94384.18
2019-05-09T05:55:44.851Z,94382.70
2019-05-09T05:58:18.310Z,94380.96
2019-05-09T06:00:52.929Z,94382.80
2019-05-09T06:03:28.244Z,94385.66
2019-05-09T06:06:01.247Z,94381.84
2019-05-09T06:08:34.323Z,94382.16
2019-05-09T06:11:11.824Z,94376.02
2019-05-09T06:13:54.532Z,94381.84
2019-05-09T06:16:21.994Z,94379.23
2019-05-09T06:18:52.438Z,94379.73
2019-05-09T06:21:25.362Z,94371.39
2019-05-09T06:23:58.677Z,94369.82
2019-05-09T06:26:32.030Z,94362.28
2019-05-09T06:29:05.443Z,94363.06
2019-05-09T06:31:38.751Z,94358.44
2019-05-09T06:34:11.924Z,94348.66
2019-05-09T06:36:44.765Z,94349.45
2019-05-09T06:39:18.019Z,94347.16
2019-05-09T06:41:53.366Z,94351.44
2019-05-09T06:44:37.464Z,94346.94
2019-05-09T06:47:24.961Z,94351.10
2019-05-09T06:49:59.141Z,94344.13
2019-05-09T06:52:32.223Z,94340.38
2019-05-09T06:55:08.444Z,94332.80
2019-05-09T06:57:42.976Z,94330.69
2019-05-09T07:00:24.077Z,94331.83
2019-05-09T07:03:11.580Z,94330.44
2019-05-09T07:06:08.449Z,94325.97
2019-05-09T07:08:58.477Z,94323.48
2019-05-09T07:11:32.032Z,94320.14
2019-05-09T07:14:05.652Z,94318.33
2019-05-09T07:16:39.014Z,94318.14
2019-05-09T07:19:12.013Z,94312.16
2019-05-09T07:22:02.337Z,94308.63
2019-05-09T07:24:58.062Z,94307.08
2019-05-09T07:27:30.676Z,94308.00
2019-05-09T07:30:10.941Z,94309.55
2019-05-09T07:32:54.794Z,94297.83
2019-05-09T07:35:27.929Z,94296.01
2019-05-09T07:38:01.320Z,94293.73
2019-05-09T07:40:34.618Z,94283.53
2019-05-09T07:43:07.887Z,94281.47
2019-05-09T07:45:43.153Z,94277.20
2019-05-09T07:48:18.129Z,94272.61
2019-05-09T07:50:51.935Z,94265.62
2019-05-09T07:53:24.988Z,94268.50
2019-05-09T07:55:58.292Z,94263.55
2019-05-09T07:58:31.416Z,94266.25
2019-05-09T08:01:04.490Z,94269.33
2019-05-09T08:03:38.462Z,94259.63
2019-05-09T08:06:12.538Z,94251.72
2019-05-09T08:08:47.632Z,94247.63
2019-05-09T08:11:21.480Z,94249.70
2019-05-09T08:13:54.739Z,94249.45
2019-05-09T08:16:28.047Z,94252.81
2019-05-09T08:19:01.554Z,94248.70
2019-05-09T08:21:38.370Z,94240.59
2019-05-09T08:24:12.199Z,94244.41
2019-05-09T08:26:47.629Z,94235.67
2019-05-09T08:29:20.555Z,94231.36
2019-05-09T08:31:53.908Z,94227.98
2019-05-09T08:34:28.463Z,94222.28
2019-05-09T08:37:02.069Z,94213.91
2019-05-09T08:39:35.283Z,94216.70
2019-05-09T08:42:11.474Z,94215.27
2019-05-09T08:44:44.936Z,94209.04
2019-05-09T08:47:30.484Z,94206.09
2019-05-09T08:50:17.938Z,94212.58
2019-05-09T08:52:51.457Z,94203.09
2019-05-09T08:55:24.831Z,94204.78
2019-05-09T08:57:59.394Z,94197.45
2019-05-09T09:00:34.316Z,94198.83
2019-05-09T09:03:08.130Z,94194.66
2019-05-09T09:05:43.429Z,94195.31
2019-05-09T09:08:18.331Z,94196.28
2019-05-09T09:10:51.321Z,94190.95
2019-05-09T09:13:24.424Z,94192.80
2019-05-09T09:16:11.788Z,94192.39
2019-05-09T09:18:32.155Z,94196.65
2019-05-09T09:21:07.855Z,94189.66
2019-05-09T09:23:46.763Z,94184.39
2019-05-09T09:26:15.554Z,94181.89
2019-05-09T09:28:48.575Z,94179.21
2019-05-09T09:31:22.235Z,94177.97
2019-05-09T09:33:55.621Z,94173.74
2019-05-09T09:36:29.180Z,94172.99
2019-05-09T09:39:03.153Z,94168.01
2019-05-09T09:41:38.807Z,94169.48
2019-05-09T09:44:11.962Z,94165.09
2019-05-09T09:46:47.734Z,94164.41
2019-05-09T09:49:20.580Z,94164.66
2019-05-09T09:51:54.726Z,94157.77
2019-05-09T09:54:29.371Z,94156.27
2019-05-09T09:57:02.516Z,94153.59
2019-05-09T09:59:50.092Z,94155.83
2019-05-09T10:02:27.925Z,94155.50
2019-05-09T10:05:01.334Z,94157.19
2019-05-09T10:07:34.720Z,94153.27
2019-05-09T10:10:08.542Z,94144.89
2019-05-09T10:12:44.348Z,94149.20
2019-05-09T10:15:30.464Z,94141.79
2019-05-09T10:18:31.718Z,94141.13
2019-05-09T10:21:12.061Z,94145.31
2019-05-09T10:23:45.176Z,94141.77
2019-05-09T10:26:18.639Z,94133.82
2019-05-09T10:28:52.109Z,94132.22
2019-05-09T10:31:28.070Z,94126.64
2019-05-09T10:34:00.355Z,94123.83
2019-05-09T10:36:33.825Z,94126.54
2019-05-09T10:39:08.358Z,94122.17
2019-05-09T10:41:42.058Z,94120.05
2019-05-09T10:44:21.740Z,94111.30
2019-05-09T10:47:19.273Z,94115.39
2019-05-09T10:49:52.287Z,94114.09
2019-05-09T10:52:37.609Z,94111.38
2019-05-09T10:55:17.907Z,94110.59
2019-05-09T10:58:01.921Z,94108.05
2019-05-09T11:00:39.331Z,94109.35
2019-05-09T11:03:13.685Z,94109.18
2019-05-09T11:05:50.497Z,94110.11
2019-05-09T11:08:29.334Z,94112.88
2019-05-09T11:11:09.559Z,94108.45
2019-05-09T11:13:47.891Z,94108.52
2019-05-09T11:16:38.697Z,94109.91
2019-05-09T11:19:08.697Z,94117.42
2019-05-09T11:21:47.832Z,94121.00
2019-05-09T11:24:41.100Z,94116.76
2019-05-09T11:27:04.448Z,94125.30
2019-05-09T11:29:46.246Z,94120.55
2019-05-09T11:32:30.047Z,94120.67
2019-05-09T11:35:09.141Z,94125.67
2019-05-09T11:37:48.129Z,94123.73
2019-05-09T11:40:25.243Z,94127.18
2019-05-09T11:43:03.884Z,94136.77
2019-05-09T11:45:51.934Z,94143.42
2019-05-09T11:48:28.453Z,94131.77
2019-05-09T11:51:20.489Z,94134.35
2019-05-09T11:53:57.947Z,94133.98
2019-05-09T11:56:31.970Z,94135.52
2019-05-09T11:59:07.982Z,94136.08
2019-05-09T12:01:45.004Z,94135.30
2019-05-09T12:04:40.038Z,94139.39
2019-05-09T12:07:18.731Z,94134.94
2019-05-09T12:10:01.471Z,94127.50
2019-05-09T12:12:42.202Z,94135.47
2019-05-09T12:15:20.803Z,94121.13
2019-05-09T12:18:07.490Z,94120.66
2019-05-09T12:20:40.652Z,94124.20
2019-05-09T12:23:24.729Z,94127.09
2019-05-09T12:26:08.200Z,94124.03
2019-05-09T12:28:53.051Z,94122.53
2019-05-09T12:31:30.593Z,94109.52
2019-05-09T12:34:13.103Z,94105.55
2019-05-09T12:36:53.442Z,94094.17
2019-05-09T12:39:30.120Z,94088.61
2019-05-09T12:42:13.510Z,94076.09
2019-05-09T12:44:49.937Z,94069.58
2019-05-09T12:47:29.780Z,94065.22
2019-05-09T12:50:11.511Z,94062.14
2019-05-09T12:52:48.757Z,94060.73
2019-05-09T12:55:24.689Z,94058.05
2019-05-09T12:58:00.960Z,94057.86
2019-05-09T13:00:42.151Z,94051.02
2019-05-09T13:03:20.263Z,94055.14
2019-05-09T13:06:08.144Z,94042.66
2019-05-09T13:08:49.941Z,94028.45
2019-05-09T13:11:32.200Z,94028.32
2019-05-09T13:14:10.387Z,94022.67
2019-05-09T13:17:02.378Z,94025.48
2019-05-09T13:19:48.132Z,94024.10
2019-05-09T13:22:23.238Z,94010.16
2019-05-09T13:25:02.917Z,94001.42
2019-05-09T13:27:39.249Z,94003.29
2019-05-09T13:30:15.748Z,94004.76
2019-05-09T13:32:53.572Z,93993.53
2019-05-09T13:35:31.169Z,93986.21
2019-05-09T13:38:08.811Z,93975.46
2019-05-09T13:40:53.610Z,93976.67
2019-05-09T13:43:28.110Z,93973.38
2019-05-09T13:46:03.303Z,93984.84
2019-05-09T13:49:05.976Z,93981.60
2019-05-09T13:51:29.019Z,93985.58
2019-05-09T13:54:05.411Z,93999.92
2019-05-09T13:56:43.399Z,93991.25
2019-05-09T13:59:20.149Z,93997.33
2019-05-09T14:01:58.312Z,94000.98
2019-05-09T14:04:39.157Z,93998.11
2019-05-09T14:07:15.034Z,93991.83
2019-05-09T14:09:50.568Z,93987.09
2019-05-09T14:12:29.729Z,93996.92
2019-05-09T14:15:08.428Z,93984.45
2019-05-09T14:17:53.080Z,93989.86
2019-05-09T14:20:22.842Z,94016.30
2019-05-09T14:22:57.605Z,93982.55
2019-05-09T14:25:31.381Z,93975.54
2019-05-09T14:28:05.008Z,93977.74
2019-05-09T14:30:39.147Z,93982.47
2019-05-09T14:33:12.728Z,93978.30
2019-05-09T14:35:47.889Z,93983.36
2019-05-09T14:38:22.036Z,93984.65
2019-05-09T14:40:55.303Z,93983.95
2019-05-09T14:43:34.476Z,93976.70
2019-05-09T14:46:08.265Z,93972.80
2019-05-09T14:48:41.667Z,93973.34
2019-05-09T14:51:15.260Z,93990.97
2019-05-09T14:53:48.676Z,93982.73
2019-05-09T14:56:22.190Z,93990.06
2019-05-09T14:58:58.001Z,93987.06
2019-05-09T15:01:30.972Z,93994.75
2019-05-09T15:04:04.435Z,93991.95
2019-05-09T15:06:41.917Z,93988.18
2019-05-09T15:09:18.224Z,93991.48
2019-05-09T15:11:51.715Z,93990.64
2019-05-09T15:14:28.745Z,93985.11
2019-05-09T15:17:01.571Z,93980.66
2019-05-09T15:19:35.109Z,93985.00
2019-05-09T15:22:08.877Z,93985.28
2019-05-09T15:24:43.684Z,93983.31
2019-05-09T15:27:17.782Z,93980.48
2019-05-09T15:29:50.730Z,93980.15
2019-05-09T15:32:24.288Z,93981.27
2019-05-09T15:34:57.807Z,93979.61
2019-05-09T15:37:32.316Z,93976.71
2019-05-09T15:40:08.352Z,93960.53
2019-05-09T15:42:40.506Z,93954.03
2019-05-09T15:45:18.238Z,93955.84
2019-05-09T15:47:51.375Z,93952.16
2019-05-09T15:50:24.522Z,93951.42
2019-05-09T15:52:58.757Z,93950.01
2019-05-09T15:55:31.986Z,93948.44
2019-05-09T15:58:05.200Z,93953.73
2019-05-09T16:00:38.716Z,93952.65
2019-05-09T16:03:12.661Z,93952.02
2019-05-09T16:05:47.906Z,93946.42
2019-05-09T16:08:20.532Z,93945.00
2019-05-09T16:10:53.780Z,93944.23
2019-05-09T16:13:28.487Z,93945.95
2019-05-09T16:16:02.153Z,93945.94
2019-05-09T16:18:36.134Z,93937.94
2019-05-09T16:21:09.679Z,93943.43
2019-05-09T16:23:42.914Z,93940.67
2019-05-09T16:26:18.133Z,93946.75
2019-05-09T16:28:53.891Z,93954.94
2019-05-09T16:31:27.882Z,93955.13
2019-05-09T16:34:01.481Z,93960.52
2019-05-09T16:36:34.641Z,93949.61
2019-05-09T16:39:09.561Z,93953.03
2019-05-09T16:41:43.286Z,93947.19
2019-05-09T16:44:18.239Z,93949.84
2019-05-09T16:46:53.580Z,93946.59
2019-05-09T16:49:30.117Z,93946.00
2019-05-09T16:52:03.501Z,93946.25
2019-05-09T16:54:40.068Z,93944.20
2019-05-09T16:57:13.655Z,93946.89
2019-05-09T16:59:47.862Z,93954.23
2019-05-09T17:02:25.049Z,93949.30
2019-05-09T17:04:57.694Z,93947.12
2019-05-09T17:07:31.917Z,93952.54
2019-05-09T17:10:05.053Z,93952.65
2019-05-09T17:12:39.121Z,93954.73
2019-05-09T17:15:14.497Z,93953.84
2019-05-09T17:17:48.089Z,93947.59
2019-05-09T17:20:30.275Z,93949.13
2019-05-09T17:23:21.705Z,93947.44
2019-05-09T17:25:55.136Z,93949.89
2019-05-09T17:28:29.448Z,93951.55
2019-05-09T17:31:07.947Z,93953.00
2019-05-09T17:33:49.122Z,93948.40
2019-05-09T17:36:22.695Z,93946.22
2019-05-09T17:38:55.984Z,93942.27
2019-05-09T17:41:30.043Z,93941.34
2019-05-09T17:44:04.541Z,93940.38
2019-05-09T17:46:40.414Z,93935.61
2019-05-09T17:49:17.472Z,93939.94
2019-05-09T17:51:51.721Z,93938.30
2019-05-09T17:54:24.526Z,93930.00
2019-05-09T17:56:58.690Z,93918.83
2019-05-09T17:59:33.725Z,93915.28
2019-05-09T18:02:11.013Z,93906.80
2019-05-09T18:04:44.520Z,93906.11
2019-05-09T18:07:18.353Z,93902.06
2019-05-09T18:09:52.340Z,93908.06
2019-05-09T18:12:27.720Z,93905.95
2019-05-09T18:15:00.908Z,93903.98
2019-05-09T18:17:34.481Z,93911.94
2019-05-09T18:20:08.470Z,93917.19
2019-05-09T18:22:47.924Z,93923.33
2019-05-09T18:25:21.331Z,93931.56
2019-05-09T18:27:57.350Z,93937.88
2019-05-09T18:30:32.871Z,93937.29
2019-05-09T18:33:39.178Z,93932.70
2019-05-09T18:36:12.767Z,93934.03
2019-05-09T18:38:49.635Z,93936.17
2019-05-09T18:41:23.550Z,93941.56
2019-05-09T18:43:57.452Z,93942.58
2019-05-09T18:46:30.698Z,93940.38
2019-05-09T18:49:04.394Z,93941.27
2019-05-09T18:51:38.252Z,93939.89
2019-05-09T18:54:12.272Z,93941.91
2019-05-09T18:56:45.998Z,93943.39
2019-05-09T18:59:22.738Z,93940.54
2019-05-09T19:01:56.584Z,93941.51
2019-05-09T19:04:32.520Z,93945.36
2019-05-09T19:07:21.418Z,93953.88
2019-05-09T19:09:43.821Z,93949.57
2019-05-09T19:12:18.054Z,93957.92
2019-05-09T19:14:58.383Z,93960.36
2019-05-09T19:17:50.833Z,93969.31
2019-05-09T19:20:46.667Z,93977.20
2019-05-09T19:23:20.590Z,93981.17
2019-05-09T19:25:54.875Z,93977.56
2019-05-09T19:28:31.080Z,93983.09
2019-05-09T19:31:07.076Z,93976.64
2019-05-09T19:33:46.344Z,93974.34
2019-05-09T19:36:21.663Z,93973.52
2019-05-09T19:38:56.746Z,93963.74
2019-05-09T19:41:31.936Z,93961.34
2019-05-09T19:44:12.705Z,93956.30
2019-05-09T19:46:50.462Z,93956.28
2019-05-09T19:49:28.445Z,93947.03
2019-05-09T19:52:04.329Z,93954.32
2019-05-09T19:54:39.125Z,93955.74
2019-05-09T19:57:14.112Z,93957.45
2019-05-09T19:59:50.166Z,93962.27
2019-05-09T20:02:25.062Z,93959.50
2019-05-09T20:05:00.202Z,93962.78
2019-05-09T20:07:36.180Z,93958.25
2019-05-09T20:10:32.977Z,93963.03
2019-05-09T20:13:19.429Z,93966.63
2019-05-09T20:15:55.936Z,93970.34
2019-05-09T20:18:31.122Z,93977.21
2019-05-09T20:21:06.112Z,93971.24
2019-05-09T20:23:40.803Z,93973.72
2019-05-09T20:26:15.461Z,93970.89
2019-05-09T20:28:51.554Z,93970.66
2019-05-09T20:31:27.046Z,93968.53
2019-05-09T20:34:05.202Z,93966.03
2019-05-09T20:36:42.370Z,93961.16
2019-05-09T20:39:17.368Z,93960.39
2019-05-09T20:41:56.038Z,93960.98
2019-05-09T20:44:31.098Z,93955.50
2019-05-09T20:47:07.451Z,93947.72
2019-05-09T20:49:45.588Z,93943.70
2019-05-09T20:52:27.076Z,93935.73
2019-05-09T20:55:05.227Z,93930.48
2019-05-09T20:57:41.170Z,93919.71
2019-05-09T21:00:19.447Z,93917.47
2019-05-09T21:02:58.535Z,93916.16
2019-05-09T21:05:33.696Z,93923.28
2019-05-09T21:08:08.608Z,93921.47
2019-05-09T21:10:45.972Z,93920.27
2019-05-09T21:13:24.281Z,93928.70
2019-05-09T21:15:59.737Z,93924.39
2019-05-09T21:18:35.294Z,93926.91
2019-05-09T21:21:10.105Z,93929.65
2019-05-09T21:23:45.751Z,93921.88
2019-05-09T21:26:20.871Z,93924.80
2019-05-09T21:28:55.870Z,93927.00
2019-05-09T21:31:32.283Z,93931.50
2019-05-09T21:34:09.463Z,93930.14
2019-05-09T21:36:44.723Z,93925.87
2019-05-09T21:39:19.735Z,93933.34
2019-05-09T21:41:54.882Z,93937.02
2019-05-09T21:44:30.134Z,93936.13
2019-05-09T21:47:08.881Z,93943.47
2019-05-09T21:49:45.863Z,93942.72
2019-05-09T21:52:28.390Z,93943.98
2019-05-09T21:55:03.282Z,93943.48
2019-05-09T21:57:38.277Z,93940.30
2019-05-09T22:00:24.206Z,93944.97
2019-05-09T22:02:59.332Z,93942.13
2019-05-09T22:05:34.398Z,93929.33
2019-05-09T22:08:09.634Z,93935.66
2019-05-09T22:10:45.446Z,93933.98
2019-05-09T22:13:27.480Z,93934.22
2019-05-09T22:16:02.399Z,93920.00
2019-05-09T22:18:37.678Z,93924.85
2019-05-09T22:21:23.148Z,93917.95
2019-05-09T22:23:57.981Z,93908.05
2019-05-09T22:26:35.744Z,93905.98
2019-05-09T22:29:15.139Z,93908.34
2019-05-09T22:31:49.947Z,93907.69
2019-05-09T22:34:25.288Z,93909.89
2019-05-09T22:37:00.232Z,93906.70
2019-05-09T22:39:37.027Z,93910.84
2019-05-09T22:42:12.063Z,93913.27
2019-05-09T22:44:47.200Z,93913.61
2019-05-09T22:47:21.901Z,93914.08
2019-05-09T22:49:56.715Z,93908.12
2019-05-09T22:52:39.005Z,93906.47
2019-05-09T22:55:14.202Z,93909.94
2019-05-09T22:57:46.436Z,93900.82
2019-05-09T23:00:25.058Z,93895.14
2019-05-09T23:03:03.811Z,93899.98
2019-05-09T23:05:39.176Z,93901.06
2019-05-09T23:08:14.022Z,93910.03
2019-05-09T23:10:54.143Z,93906.07
2019-05-09T23:13:36.033Z,93905.98
2019-05-09T23:16:12.802Z,93901.16
2019-05-09T23:18:47.999Z,93900.68
2019-05-09T23:21:32.033Z,93898.37
2019-05-09T23:24:27.099Z,93895.06
2019-05-09T23:26:48.565Z,93886.23
2019-05-09T23:29:26.202Z,93880.80
2019-05-09T23:32:32.518Z,93879.33
2019-05-09T23:35:07.867Z,93875.19
2019-05-09T23:37:46.033Z,93864.58
2019-05-09T23:40:21.640Z,93886.77
2019-05-09T23:42:58.336Z,93881.81
2019-05-09T23:45:33.395Z,93886.89
2019-05-09T23:48:08.482Z,93888.95
2019-05-09T23:50:47.060Z,93887.87
2019-05-09T23:53:35.989Z,93893.11
2019-05-09T23:56:28.925Z,93892.38
2019-05-09T23:59:24.450Z,93886.09
